Time;durP1;ratioP1;P1;durP2;ratioP2;P2;SDS_P1;SDS_P2;PMS_P1;PMS_P2;Temp;Humidity;BMP_temperature;BMP_pressure;BME280_temperature;BME280_humidity;BME280_pressure;Samples;Min_cycle;Max_cycle;Signal;HPM_P1;HPM_P2
2023/07/29 00:01:15;;;;;;;3.43;3.07;;;;;;;;;;4993429;28;20411;-65
2023/07/29 00:03:44;;;;;;;4.80;3.37;;;;;;;;;;4993273;28;20886;-65
2023/07/29 00:06:12;;;;;;;3.33;3.13;;;;;;;;;;4993402;28;20426;-65
2023/07/29 00:08:38;;;;;;;8.80;3.30;;;;;;;;;;4993440;28;20448;-65
2023/07/29 00:11:04;;;;;;;3.00;2.80;;;;;;;;;;4993252;28;20421;-65
2023/07/29 00:13:30;;;;;;;3.63;3.33;;;;;;;;;;4993211;28;20461;-65
2023/07/29 00:15:56;;;;;;;5.33;3.07;;;;;;;;;;4991737;28;20951;-64
2023/07/29 00:18:23;;;;;;;3.63;2.90;;;;;;;;;;4993215;28;20522;-65
2023/07/29 00:20:50;;;;;;;6.20;3.10;;;;;;;;;;4992945;28;20452;-65
2023/07/29 00:23:18;;;;;;;3.90;3.57;;;;;;;;;;4993128;28;20432;-64
2023/07/29 00:25:44;;;;;;;3.60;3.40;;;;;;;;;;4993027;28;20863;-64
2023/07/29 00:28:10;;;;;;;3.33;2.97;;;;;;;;;;4992319;28;20473;-65
2023/07/29 00:30:36;;;;;;;3.80;2.83;;;;;;;;;;4992933;28;20410;-65
2023/07/29 00:33:02;;;;;;;3.30;3.10;;;;;;;;;;4992810;28;20765;-64
2023/07/29 00:35:28;;;;;;;3.97;3.00;;;;;;;;;;4993089;28;20421;-64
2023/07/29 00:37:54;;;;;;;6.20;2.53;;;;;;;;;;4993056;28;20413;-65
2023/07/29 00:40:21;;;;;;;2.37;2.37;;;;;;;;;;4992860;28;20916;-65
2023/07/29 00:42:50;;;;;;;2.20;2.10;;;;;;;;;;4992780;28;20986;-65
2023/07/29 00:45:16;;;;;;;6.80;2.70;;;;;;;;;;4992910;28;20432;-65
2023/07/29 00:47:43;;;;;;;2.17;2.17;;;;;;;;;;4991297;28;20447;-65
2023/07/29 00:50:10;;;;;;;2.17;1.97;;;;;;;;;;4992792;28;20466;-64
2023/07/29 00:52:36;;;;;;;1.90;1.80;;;;;;;;;;4992513;28;20500;-64
2023/07/29 00:55:02;;;;;;;2.40;2.20;;;;;;;;;;4992227;28;20833;-64
2023/07/29 00:57:29;;;;;;;2.00;2.00;;;;;;;;;;4992929;28;20421;-65
2023/07/29 00:59:55;;;;;;;4.00;2.27;;;;;;;;;;4991626;28;20454;-65
2023/07/29 01:02:21;;;;;;;2.07;2.07;;;;;;;;;;4993055;28;20484;-65
2023/07/29 01:04:58;;;;;;;2.83;2.30;;;;;;;;;;4992742;28;20440;-65
2023/07/29 01:07:24;;;;;;;2.40;2.30;;;;;;;;;;4993295;28;20410;-65
2023/07/29 01:09:53;;;;;;;2.00;2.00;;;;;;;;;;4992671;28;20445;-65
2023/07/29 01:12:29;;;;;;;2.17;2.17;;;;;;;;;;4992616;28;20626;-65
2023/07/29 01:14:58;;;;;;;3.23;2.10;;;;;;;;;;4991531;28;20836;-65
2023/07/29 01:17:29;;;;;;;2.30;1.80;;;;;;;;;;4992857;28;20448;-64
2023/07/29 01:20:07;;;;;;;1.90;1.80;;;;;;;;;;4993205;28;20841;-65
2023/07/29 01:22:34;;;;;;;1.57;1.57;;;;;;;;;;4992948;28;20433;-65
2023/07/29 01:25:00;;;;;;;1.73;1.73;;;;;;;;;;4992774;28;20413;-65
2023/07/29 01:27:27;;;;;;;2.07;2.00;;;;;;;;;;4992730;28;20471;-64
2023/07/29 01:29:53;;;;;;;2.77;2.67;;;;;;;;;;4992663;28;20436;-65
2023/07/29 01:32:41;;;;;;;3.43;2.27;;;;;;;;;;4992966;28;20880;-65
2023/07/29 01:35:10;;;;;;;2.47;2.37;;;;;;;;;;4992954;28;20475;-65
2023/07/29 01:37:38;;;;;;;2.50;2.40;;;;;;;;;;4991185;28;20448;-64
2023/07/29 01:40:04;;;;;;;1.97;1.87;;;;;;;;;;4992785;28;20415;-65
2023/07/29 01:42:31;;;;;;;2.63;2.00;;;;;;;;;;4992458;28;20421;-64
2023/07/29 01:44:57;;;;;;;6.63;2.13;;;;;;;;;;4992344;28;20937;-64
2023/07/29 01:47:27;;;;;;;3.57;2.47;;;;;;;;;;4992006;28;20506;-65
2023/07/29 01:49:53;;;;;;;4.37;2.73;;;;;;;;;;4992266;28;20444;-64
2023/07/29 01:52:19;;;;;;;3.50;2.97;;;;;;;;;;4992084;28;20767;-65
2023/07/29 01:54:48;;;;;;;2.47;2.37;;;;;;;;;;4992097;28;20467;-65
2023/07/29 01:57:14;;;;;;;4.23;2.50;;;;;;;;;;4992467;28;20837;-65
2023/07/29 01:59:40;;;;;;;4.90;2.43;;;;;;;;;;4992244;28;20519;-65
2023/07/29 02:02:06;;;;;;;2.17;2.07;;;;;;;;;;4992246;28;20404;-64
2023/07/29 02:04:34;;;;;;;4.50;2.70;;;;;;;;;;4991499;28;20919;-65
2023/07/29 02:07:00;;;;;;;2.83;2.73;;;;;;;;;;4995474;28;20424;-65
2023/07/29 02:09:27;;;;;;;2.93;2.20;;;;;;;;;;4995936;28;20511;-65
2023/07/29 02:11:53;;;;;;;2.73;2.40;;;;;;;;;;4995507;28;20467;-65
2023/07/29 02:14:19;;;;;;;2.70;2.50;;;;;;;;;;4995561;28;20947;-65
2023/07/29 02:16:45;;;;;;;2.27;2.17;;;;;;;;;;4995356;28;20442;-65
2023/07/29 02:19:11;;;;;;;2.47;2.37;;;;;;;;;;4994243;28;20551;-65
2023/07/29 02:21:37;;;;;;;2.37;2.27;;;;;;;;;;4995159;28;21017;-64
2023/07/29 02:24:03;;;;;;;2.37;2.10;;;;;;;;;;4995224;28;20428;-65
2023/07/29 02:26:29;;;;;;;2.33;2.10;;;;;;;;;;4993867;28;20926;-65
2023/07/29 02:28:55;;;;;;;2.17;2.07;;;;;;;;;;4995355;28;20446;-64
2023/07/29 02:31:22;;;;;;;4.53;2.40;;;;;;;;;;4995295;28;20427;-65
2023/07/29 02:33:49;;;;;;;5.50;2.30;;;;;;;;;;4993783;28;20990;-64
2023/07/29 02:36:15;;;;;;;2.60;2.07;;;;;;;;;;4995062;28;20460;-65
2023/07/29 02:38:41;;;;;;;3.83;2.37;;;;;;;;;;4994810;28;20531;-65
2023/07/29 02:41:08;;;;;;;1.80;1.80;;;;;;;;;;4994900;28;20479;-65
2023/07/29 02:43:37;;;;;;;2.70;2.40;;;;;;;;;;4994738;28;20419;-65
2023/07/29 02:46:03;;;;;;;7.67;2.63;;;;;;;;;;4994485;28;20466;-65
2023/07/29 02:48:29;;;;;;;3.87;2.30;;;;;;;;;;4994368;28;20451;-65
2023/07/29 02:50:56;;;;;;;6.07;2.00;;;;;;;;;;4994922;28;20442;-65
2023/07/29 02:53:22;;;;;;;2.90;2.80;;;;;;;;;;4994477;28;20553;-65
2023/07/29 02:55:51;;;;;;;8.43;3.90;;;;;;;;;;4994401;28;20419;-65
2023/07/29 02:58:17;;;;;;;3.50;3.30;;;;;;;;;;4994465;28;20408;-64
2023/07/29 03:00:43;;;;;;;3.40;2.83;;;;;;;;;;4994418;28;20431;-65
2023/07/29 03:03:11;;;;;;;4.00;2.70;;;;;;;;;;4994558;28;20424;-65
2023/07/29 03:05:38;;;;;;;2.30;2.30;;;;;;;;;;4995035;28;20416;-64
2023/07/29 03:08:04;;;;;;;7.57;2.83;;;;;;;;;;4994933;28;20417;-65
2023/07/29 03:10:32;;;;;;;2.33;2.23;;;;;;;;;;4994300;28;20463;-65
2023/07/29 03:12:58;;;;;;;2.57;2.17;;;;;;;;;;4993749;28;20939;-64
2023/07/29 03:15:24;;;;;;;2.37;2.27;;;;;;;;;;4994403;28;20405;-64
2023/07/29 03:17:51;;;;;;;3.50;2.10;;;;;;;;;;4993448;28;20479;-64
2023/07/29 03:20:20;;;;;;;2.23;2.03;;;;;;;;;;4994021;28;20423;-65
2023/07/29 03:22:46;;;;;;;2.37;2.30;;;;;;;;;;4994050;28;20483;-65
2023/07/29 03:25:12;;;;;;;3.20;2.30;;;;;;;;;;4994292;28;20470;-65
2023/07/29 03:27:39;;;;;;;5.60;2.00;;;;;;;;;;4993903;28;20795;-65
2023/07/29 03:30:06;;;;;;;3.40;2.30;;;;;;;;;;4992923;28;20439;-65
2023/07/29 03:32:32;;;;;;;3.87;2.27;;;;;;;;;;4993041;28;20421;-64
2023/07/29 03:35:00;;;;;;;2.87;2.20;;;;;;;;;;4992601;28;20803;-65
2023/07/29 03:37:26;;;;;;;5.50;2.20;;;;;;;;;;4991577;28;20440;-65
2023/07/29 03:39:52;;;;;;;2.07;1.87;;;;;;;;;;4992814;28;20498;-65
2023/07/29 03:42:18;;;;;;;1.97;1.87;;;;;;;;;;4993699;28;20407;-65
2023/07/29 03:44:47;;;;;;;3.70;1.90;;;;;;;;;;4993532;28;20836;-65
2023/07/29 03:47:12;;;;;;;2.13;1.77;;;;;;;;;;4993423;28;20466;-65
2023/07/29 03:49:38;;;;;;;3.33;2.43;;;;;;;;;;4993414;28;20874;-65
2023/07/29 03:52:05;;;;;;;2.40;1.83;;;;;;;;;;4993532;28;20439;-65
2023/07/29 03:54:31;;;;;;;3.73;2.00;;;;;;;;;;4992937;28;20475;-64
2023/07/29 03:56:57;;;;;;;3.60;2.20;;;;;;;;;;4991991;28;20439;-65
2023/07/29 03:59:23;;;;;;;6.43;2.00;;;;;;;;;;4993389;28;20940;-65
2023/07/29 04:01:49;;;;;;;2.40;2.30;;;;;;;;;;4993282;28;20455;-65
2023/07/29 04:04:15;;;;;;;2.47;2.37;;;;;;;;;;4993429;28;20697;-65
2023/07/29 04:06:43;;;;;;;5.77;2.00;;;;;;;;;;4993248;28;20452;-65
2023/07/29 04:09:11;;;;;;;2.90;2.40;;;;;;;;;;4993166;28;20509;-64
2023/07/29 04:11:43;;;;;;;2.67;2.30;;;;;;;;;;4993406;28;20430;-65
2023/07/29 04:14:09;;;;;;;1.90;1.90;;;;;;;;;;4993234;28;20473;-65
2023/07/29 04:16:35;;;;;;;2.63;2.10;;;;;;;;;;4991727;28;20420;-65
2023/07/29 04:19:01;;;;;;;2.23;1.70;;;;;;;;;;4993096;28;20533;-65
2023/07/29 04:21:27;;;;;;;8.10;2.20;;;;;;;;;;4993118;28;20496;-64
2023/07/29 04:23:56;;;;;;;5.37;2.30;;;;;;;;;;4992968;28;20413;-65
2023/07/29 04:26:22;;;;;;;2.23;2.00;;;;;;;;;;4992731;28;20510;-65
2023/07/29 04:28:48;;;;;;;3.37;2.20;;;;;;;;;;4992959;28;20979;-64
2023/07/29 04:31:14;;;;;;;8.60;2.30;;;;;;;;;;4992919;28;20434;-64
2023/07/29 04:33:42;;;;;;;2.40;2.30;;;;;;;;;;4993004;28;20468;-65
2023/07/29 04:36:08;;;;;;;2.00;1.80;;;;;;;;;;4992704;28;20844;-65
2023/07/29 04:38:34;;;;;;;2.07;2.07;;;;;;;;;;4993032;28;20420;-65
2023/07/29 04:41:07;;;;;;;8.30;2.10;;;;;;;;;;4990957;28;20461;-64
2023/07/29 04:43:33;;;;;;;3.50;2.37;;;;;;;;;;4992878;28;20893;-65
2023/07/29 04:45:59;;;;;;;11.43;2.50;;;;;;;;;;4993032;28;20942;-65
2023/07/29 04:48:25;;;;;;;9.20;1.70;;;;;;;;;;4991264;28;20423;-65
2023/07/29 04:50:51;;;;;;;3.17;2.90;;;;;;;;;;4992623;28;20411;-65
2023/07/29 04:53:17;;;;;;;3.53;2.60;;;;;;;;;;4992578;28;20947;-65
2023/07/29 04:55:43;;;;;;;3.87;2.17;;;;;;;;;;4992612;28;20413;-65
2023/07/29 04:58:09;;;;;;;3.80;2.50;;;;;;;;;;4992674;28;20490;-65
2023/07/29 05:00:35;;;;;;;7.90;2.60;;;;;;;;;;4992995;28;20427;-65
2023/07/29 05:03:01;;;;;;;2.30;2.10;;;;;;;;;;4992630;28;20465;-65
2023/07/29 05:05:27;;;;;;;2.20;2.10;;;;;;;;;;4992564;28;20765;-65
2023/07/29 05:07:53;;;;;;;4.50;2.90;;;;;;;;;;4992611;28;20422;-65
2023/07/29 05:10:20;;;;;;;2.57;2.47;;;;;;;;;;4992476;28;20442;-65
2023/07/29 05:12:46;;;;;;;3.67;3.37;;;;;;;;;;4992710;28;20474;-65
2023/07/29 05:15:14;;;;;;;4.20;2.30;;;;;;;;;;4990955;28;20483;-65
2023/07/29 05:17:40;;;;;;;2.87;2.77;;;;;;;;;;4992476;28;20675;-65
2023/07/29 05:20:07;;;;;;;2.10;1.90;;;;;;;;;;4992605;28;20435;-64
2023/07/29 05:22:33;;;;;;;3.40;2.40;;;;;;;;;;4992560;28;20462;-65
2023/07/29 05:24:59;;;;;;;2.10;2.00;;;;;;;;;;4992730;28;20906;-64
2023/07/29 05:27:25;;;;;;;2.60;2.40;;;;;;;;;;4992399;28;20486;-65
2023/07/29 05:29:51;;;;;;;2.83;2.60;;;;;;;;;;4992510;28;20423;-65
2023/07/29 05:32:22;;;;;;;2.13;2.10;;;;;;;;;;4992515;28;20439;-65
2023/07/29 05:34:48;;;;;;;4.63;2.50;;;;;;;;;;4992416;28;20994;-66
2023/07/29 05:37:14;;;;;;;2.50;2.23;;;;;;;;;;4992399;28;20477;-66
2023/07/29 05:39:40;;;;;;;2.20;2.20;;;;;;;;;;4993640;28;20959;-66
2023/07/29 05:42:06;;;;;;;2.50;2.40;;;;;;;;;;4996214;28;20496;-66
2023/07/29 05:44:34;;;;;;;5.80;5.20;;;;;;;;;;4994898;28;20969;-66
2023/07/29 05:47:00;;;;;;;2.40;2.30;;;;;;;;;;4996179;28;20785;-66
2023/07/29 05:49:26;;;;;;;2.60;2.23;;;;;;;;;;4996064;28;20428;-65
2023/07/29 05:51:52;;;;;;;5.67;2.30;;;;;;;;;;4996056;28;20425;-65
2023/07/29 05:54:19;;;;;;;2.90;2.70;;;;;;;;;;4995814;28;20472;-65
2023/07/29 05:56:45;;;;;;;2.80;2.70;;;;;;;;;;5002787;28;20838;-65
2023/07/29 05:59:11;;;;;;;2.67;2.57;;;;;;;;;;5015357;28;20423;-65
2023/07/29 06:01:39;;;;;;;3.57;2.60;;;;;;;;;;5015279;28;20423;-65
2023/07/29 06:04:07;;;;;;;2.93;2.60;;;;;;;;;;5015131;28;20907;-66
2023/07/29 06:06:33;;;;;;;4.50;3.33;;;;;;;;;;5013927;28;20433;-65
2023/07/29 06:08:59;;;;;;;3.10;3.00;;;;;;;;;;5015098;28;20428;-65
2023/07/29 06:11:25;;;;;;;3.10;2.83;;;;;;;;;;5014924;28;20447;-65
2023/07/29 06:13:51;;;;;;;3.23;3.03;;;;;;;;;;5014975;28;20835;-65
2023/07/29 06:16:17;;;;;;;2.53;2.53;;;;;;;;;;5015058;28;20432;-65
2023/07/29 06:18:46;;;;;;;2.57;2.47;;;;;;;;;;5014453;28;20456;-66
2023/07/29 06:21:16;;;;;;;4.27;3.00;;;;;;;;;;5015027;28;20424;-65
2023/07/29 06:23:45;;;;;;;3.27;3.17;;;;;;;;;;5014599;28;20839;-66
2023/07/29 06:26:10;;;;;;;4.83;3.03;;;;;;;;;;5014835;28;20419;-65
2023/07/29 06:28:39;;;;;;;3.73;2.77;;;;;;;;;;5014960;28;20426;-65
2023/07/29 06:31:05;;;;;;;4.23;2.70;;;;;;;;;;5015088;28;20420;-65
2023/07/29 06:33:33;;;;;;;3.80;3.50;;;;;;;;;;5014617;28;20482;-65
2023/07/29 06:36:05;;;;;;;7.57;3.50;;;;;;;;;;5014810;28;20428;-65
2023/07/29 06:38:31;;;;;;;4.20;4.00;;;;;;;;;;5014452;28;20479;-65
2023/07/29 06:40:57;;;;;;;3.50;3.20;;;;;;;;;;5014637;28;20426;-64
2023/07/29 06:43:23;;;;;;;11.53;3.47;;;;;;;;;;5014532;28;20432;-65
2023/07/29 06:45:49;;;;;;;3.00;2.90;;;;;;;;;;5014341;28;20957;-64
2023/07/29 06:48:15;;;;;;;6.73;2.93;;;;;;;;;;5014456;28;20977;-64
2023/07/29 06:50:41;;;;;;;3.27;3.17;;;;;;;;;;5012320;28;20456;-65
2023/07/29 06:53:07;;;;;;;2.37;2.37;;;;;;;;;;5013761;28;20471;-65
2023/07/29 06:55:33;;;;;;;3.30;3.20;;;;;;;;;;5014328;28;20815;-65
2023/07/29 06:57:59;;;;;;;3.00;2.90;;;;;;;;;;5014383;28;20423;-64
2023/07/29 07:00:25;;;;;;;2.90;2.80;;;;;;;;;;5014290;28;20526;-65
2023/07/29 07:02:51;;;;;;;4.83;3.10;;;;;;;;;;5012877;28;20503;-65
2023/07/29 07:05:17;;;;;;;2.63;2.43;;;;;;;;;;5014434;28;20582;-65
2023/07/29 07:07:43;;;;;;;2.83;2.63;;;;;;;;;;5012532;28;20423;-65
2023/07/29 07:10:09;;;;;;;8.93;3.10;;;;;;;;;;5014134;28;20423;-64
2023/07/29 07:12:35;;;;;;;3.23;3.10;;;;;;;;;;5012539;28;20470;-65
2023/07/29 07:15:01;;;;;;;5.40;2.57;;;;;;;;;;5014065;28;20950;-64
2023/07/29 07:17:27;;;;;;;5.63;2.27;;;;;;;;;;5013950;28;20439;-65
2023/07/29 07:19:53;;;;;;;2.70;2.50;;;;;;;;;;5012571;28;20513;-65
2023/07/29 07:22:19;;;;;;;2.53;2.33;;;;;;;;;;5013794;28;20435;-65
2023/07/29 07:24:47;;;;;;;2.63;2.50;;;;;;;;;;5013694;28;20415;-65
2023/07/29 07:27:13;;;;;;;2.83;2.17;;;;;;;;;;5012294;28;20420;-65
2023/07/29 07:29:39;;;;;;;6.53;5.93;;;;;;;;;;5013620;28;20942;-64
2023/07/29 07:32:08;;;;;;;7.63;2.40;;;;;;;;;;5013790;28;20447;-64
2023/07/29 07:34:34;;;;;;;3.60;2.00;;;;;;;;;;5013587;28;20483;-65
2023/07/29 07:37:00;;;;;;;2.50;2.40;;;;;;;;;;5013830;28;20484;-64
2023/07/29 07:39:26;;;;;;;2.53;2.00;;;;;;;;;;5013289;28;20448;-65
2023/07/29 07:41:52;;;;;;;2.83;2.63;;;;;;;;;;5013811;28;20399;-65
2023/07/29 07:44:19;;;;;;;2.50;2.30;;;;;;;;;;5013541;28;20749;-65
2023/07/29 07:46:45;;;;;;;2.40;2.30;;;;;;;;;;5013260;28;20437;-64
2023/07/29 07:49:12;;;;;;;3.50;2.50;;;;;;;;;;5013468;28;20423;-64
2023/07/29 07:51:41;;;;;;;2.60;2.40;;;;;;;;;;5013137;28;20419;-65
2023/07/29 07:54:07;;;;;;;3.87;2.17;;;;;;;;;;5011765;28;20571;-64
2023/07/29 07:56:33;;;;;;;2.43;2.40;;;;;;;;;;5013209;28;20552;-64
2023/07/29 07:58:58;;;;;;;2.17;2.17;;;;;;;;;;5013102;28;20475;-65
2023/07/29 08:01:24;;;;;;;2.03;1.80;;;;;;;;;;5013030;28;20944;-65
2023/07/29 08:03:50;;;;;;;2.53;2.43;;;;;;;;;;5012381;28;20421;-65
2023/07/29 08:06:19;;;;;;;3.83;2.10;;;;;;;;;;5012924;28;20966;-66
2023/07/29 08:08:45;;;;;;;2.40;2.30;;;;;;;;;;5012774;28;20417;-65
2023/07/29 08:11:11;;;;;;;3.80;2.07;;;;;;;;;;5012830;28;20524;-65
2023/07/29 08:13:37;;;;;;;1.80;1.80;;;;;;;;;;5011648;28;20472;-65
2023/07/29 08:16:03;;;;;;;4.50;4.10;;;;;;;;;;5012850;28;20620;-65
2023/07/29 08:18:29;;;;;;;2.50;2.40;;;;;;;;;;5012680;28;20456;-65
2023/07/29 08:20:57;;;;;;;3.10;3.00;;;;;;;;;;5012599;28;20480;-66
2023/07/29 08:23:23;;;;;;;2.03;1.93;;;;;;;;;;5013047;28;20437;-65
2023/07/29 08:26:00;;;;;;;2.87;2.10;;;;;;;;;;5012601;28;20417;-65
2023/07/29 08:28:26;;;;;;;2.77;2.57;;;;;;;;;;5012483;28;20460;-65
2023/07/29 08:30:52;;;;;;;2.03;2.03;;;;;;;;;;5012720;28;20816;-65
2023/07/29 08:33:21;;;;;;;2.47;2.33;;;;;;;;;;5011443;28;20507;-65
2023/07/29 08:35:47;;;;;;;2.00;2.00;;;;;;;;;;5012536;28;20853;-65
2023/07/29 08:38:15;;;;;;;2.20;2.10;;;;;;;;;;5012391;28;20521;-65
2023/07/29 08:40:47;;;;;;;1.90;1.90;;;;;;;;;;5012437;28;20443;-65
2023/07/29 08:43:15;;;;;;;2.20;2.10;;;;;;;;;;5012148;28;20456;-65
2023/07/29 08:45:41;;;;;;;1.80;1.80;;;;;;;;;;5012282;28;20436;-65
2023/07/29 08:48:11;;;;;;;3.60;1.93;;;;;;;;;;5012201;28;20409;-65
2023/07/29 08:50:37;;;;;;;2.87;1.90;;;;;;;;;;5012014;28;20515;-65
2023/07/29 08:53:07;;;;;;;2.43;2.33;;;;;;;;;;5012466;28;20514;-65
2023/07/29 08:55:33;;;;;;;2.40;1.90;;;;;;;;;;5010940;28;20780;-65
2023/07/29 08:58:00;;;;;;;1.87;1.87;;;;;;;;;;5012707;28;20444;-65
2023/07/29 09:00:27;;;;;;;2.40;2.20;;;;;;;;;;5012732;28;20917;-64
2023/07/29 09:02:57;;;;;;;2.00;2.00;;;;;;;;;;5012480;28;20831;-65
2023/07/29 09:05:26;;;;;;;2.87;2.37;;;;;;;;;;5012671;28;20758;-65
2023/07/29 09:07:52;;;;;;;2.00;1.90;;;;;;;;;;5012713;28;20995;-64
2023/07/29 09:10:22;;;;;;;4.50;2.20;;;;;;;;;;5012481;28;20436;-64
2023/07/29 09:12:48;;;;;;;2.43;2.33;;;;;;;;;;5012214;28;20445;-65
2023/07/29 09:15:26;;;;;;;2.30;1.90;;;;;;;;;;5014190;28;20578;-65
2023/07/29 09:17:55;;;;;;;2.57;2.37;;;;;;;;;;5015939;28;20439;-65
2023/07/29 09:20:27;;;;;;;2.67;2.47;;;;;;;;;;5016405;28;20420;-64
2023/07/29 09:23:02;;;;;;;2.20;2.10;;;;;;;;;;5016454;28;20460;-65
2023/07/29 09:25:29;;;;;;;2.30;2.20;;;;;;;;;;5015026;28;20487;-65
2023/07/29 09:28:01;;;;;;;2.23;1.93;;;;;;;;;;5016044;28;20532;-64
2023/07/29 09:30:27;;;;;;;2.33;2.23;;;;;;;;;;5014667;28;20934;-65
2023/07/29 09:32:59;;;;;;;2.60;2.40;;;;;;;;;;5016131;28;20806;-64
2023/07/29 09:35:34;;;;;;;2.30;2.30;;;;;;;;;;5015955;28;20464;-64
2023/07/29 09:38:01;;;;;;;2.77;2.30;;;;;;;;;;5015991;28;20436;-66
2023/07/29 09:40:27;;;;;;;3.90;2.93;;;;;;;;;;5015921;28;20957;-60
2023/07/29 09:42:56;;;;;;;2.60;2.40;;;;;;;;;;5014725;28;20965;-58
2023/07/29 09:45:23;;;;;;;2.93;2.23;;;;;;;;;;5016073;28;20442;-59
2023/07/29 09:47:54;;;;;;;2.80;2.70;;;;;;;;;;5016238;28;20452;-59
2023/07/29 09:50:27;;;;;;;4.33;2.57;;;;;;;;;;5016395;28;20819;-60
2023/07/29 09:52:58;;;;;;;2.47;2.37;;;;;;;;;;5016935;28;20417;-59
2023/07/29 09:55:25;;;;;;;3.30;3.07;;;;;;;;;;5017532;28;20845;-61
2023/07/29 09:57:57;;;;;;;2.83;2.83;;;;;;;;;;5018130;28;20512;-60
2023/07/29 10:00:23;;;;;;;6.23;2.47;;;;;;;;;;5015778;28;20772;-59
2023/07/29 10:02:50;;;;;;;2.50;2.40;;;;;;;;;;5015495;28;20494;-59
2023/07/29 10:05:16;;;;;;;7.50;2.80;;;;;;;;;;5014705;28;20431;-60
2023/07/29 10:07:45;;;;;;;2.60;2.50;;;;;;;;;;5014153;28;20427;-59
2023/07/29 10:10:11;;;;;;;2.80;2.60;;;;;;;;;;5014914;28;20509;-60
2023/07/29 10:12:38;;;;;;;3.00;2.80;;;;;;;;;;5014137;28;20994;-60
2023/07/29 10:15:05;;;;;;;2.53;2.40;;;;;;;;;;5015061;28;20471;-59
2023/07/29 10:17:34;;;;;;;2.50;2.40;;;;;;;;;;5014382;28;20450;-59
2023/07/29 10:20:00;;;;;;;2.30;2.20;;;;;;;;;;5014820;28;20419;-59
2023/07/29 10:22:31;;;;;;;2.17;2.07;;;;;;;;;;5014142;28;20510;-59
2023/07/29 10:25:04;;;;;;;2.33;2.33;;;;;;;;;;5015205;28;20415;-59
2023/07/29 10:27:30;;;;;;;3.20;3.00;;;;;;;;;;5015209;28;20450;-60
2023/07/29 10:29:56;;;;;;;2.30;2.30;;;;;;;;;;5014072;28;20587;-60
2023/07/29 10:32:25;;;;;;;2.60;2.50;;;;;;;;;;5015176;28;20479;-60
2023/07/29 10:34:54;;;;;;;2.90;2.60;;;;;;;;;;5013674;28;20483;-60
2023/07/29 10:37:21;;;;;;;5.33;2.67;;;;;;;;;;5015021;28;20423;-60
2023/07/29 10:39:53;;;;;;;2.23;2.13;;;;;;;;;;5015206;28;20444;-61
2023/07/29 10:42:19;;;;;;;3.90;2.30;;;;;;;;;;5015186;28;20480;-60
2023/07/29 10:44:52;;;;;;;2.77;2.60;;;;;;;;;;5015055;28;20445;-61
2023/07/29 10:47:22;;;;;;;2.23;2.17;;;;;;;;;;5013429;28;20427;-61
2023/07/29 10:49:55;;;;;;;2.30;2.30;;;;;;;;;;5014854;28;20539;-59
2023/07/29 10:52:28;;;;;;;2.30;2.30;;;;;;;;;;5014909;28;20464;-61
2023/07/29 10:54:54;;;;;;;2.80;2.30;;;;;;;;;;5014823;28;20866;-60
2023/07/29 10:57:32;;;;;;;3.80;2.40;;;;;;;;;;5014901;28;20416;-60
2023/07/29 11:00:01;;;;;;;5.70;2.07;;;;;;;;;;5013373;28;20807;-61
2023/07/29 11:02:33;;;;;;;2.50;2.17;;;;;;;;;;5014540;28;20822;-60
2023/07/29 11:05:04;;;;;;;2.93;1.80;;;;;;;;;;5014565;28;20436;-61
2023/07/29 11:07:30;;;;;;;3.57;3.27;;;;;;;;;;5014706;28;20440;-61
2023/07/29 11:09:57;;;;;;;6.00;2.50;;;;;;;;;;5013403;28;20461;-61
2023/07/29 11:12:50;;;;;;;1.80;1.80;;;;;;;;;;5013255;28;20440;-60
2023/07/29 11:15:16;;;;;;;2.50;2.40;;;;;;;;;;5014474;28;20464;-61
2023/07/29 11:17:46;;;;;;;2.00;1.90;;;;;;;;;;5014318;28;20452;-60
2023/07/29 11:20:12;;;;;;;1.87;1.87;;;;;;;;;;5014430;28;20409;-61
2023/07/29 11:22:39;;;;;;;2.60;2.40;;;;;;;;;;5014260;28;20421;-61
2023/07/29 11:25:08;;;;;;;2.30;2.10;;;;;;;;;;5014251;28;20441;-61
2023/07/29 11:27:34;;;;;;;1.60;1.60;;;;;;;;;;5014100;28;20417;-60
2023/07/29 11:30:01;;;;;;;1.70;1.70;;;;;;;;;;5012899;28;20452;-61
2023/07/29 11:32:27;;;;;;;2.20;2.10;;;;;;;;;;5014017;28;20915;-61
2023/07/29 11:34:56;;;;;;;5.33;2.10;;;;;;;;;;5014022;28;20464;-60
2023/07/29 11:37:24;;;;;;;2.03;2.03;;;;;;;;;;5013332;28;20500;-61
2023/07/29 11:39:51;;;;;;;1.80;1.80;;;;;;;;;;5013974;28;20432;-61
2023/07/29 11:42:19;;;;;;;2.03;2.03;;;;;;;;;;5013968;28;20420;-60
2023/07/29 11:44:46;;;;;;;2.20;2.20;;;;;;;;;;5014004;28;20439;-59
2023/07/29 11:47:12;;;;;;;1.93;1.83;;;;;;;;;;5013866;28;20504;-60
2023/07/29 11:49:39;;;;;;;2.17;2.07;;;;;;;;;;5013628;28;20452;-60
2023/07/29 11:52:11;;;;;;;3.20;2.20;;;;;;;;;;5012527;28;20428;-61
2023/07/29 11:54:37;;;;;;;1.57;1.57;;;;;;;;;;5013220;28;20522;-60
2023/07/29 11:57:07;;;;;;;1.83;1.73;;;;;;;;;;5013907;28;20419;-59
2023/07/29 11:59:36;;;;;;;4.83;1.77;;;;;;;;;;5013949;28;20475;-61
2023/07/29 12:02:05;;;;;;;3.20;1.80;;;;;;;;;;5013741;28;20420;-63
2023/07/29 12:04:32;;;;;;;4.10;2.00;;;;;;;;;;5012269;28;20826;-61
2023/07/29 12:06:59;;;;;;;2.60;1.70;;;;;;;;;;5013594;28;20969;-61
2023/07/29 12:09:26;;;;;;;2.27;2.07;;;;;;;;;;5013470;28;20503;-59
2023/07/29 12:11:55;;;;;;;1.90;1.90;;;;;;;;;;5013328;28;20425;-62
2023/07/29 12:14:21;;;;;;;3.73;3.43;;;;;;;;;;5013167;28;20482;-62
2023/07/29 12:16:48;;;;;;;2.80;2.60;;;;;;;;;;5013181;28;20417;-61
2023/07/29 12:19:17;;;;;;;2.47;2.37;;;;;;;;;;5013321;28;20409;-60
2023/07/29 12:21:44;;;;;;;1.93;1.83;;;;;;;;;;5013340;28;20871;-62
2023/07/29 12:24:10;;;;;;;2.30;2.10;;;;;;;;;;5013089;28;20440;-61
2023/07/29 12:26:39;;;;;;;1.90;1.90;;;;;;;;;;5013400;28;20408;-61
2023/07/29 12:29:14;;;;;;;2.07;1.97;;;;;;;;;;5013199;28;20420;-61
2023/07/29 12:31:40;;;;;;;2.00;1.80;;;;;;;;;;5013089;28;20423;-61
2023/07/29 12:34:06;;;;;;;2.13;2.03;;;;;;;;;;5013054;28;20547;-62
2023/07/29 12:36:45;;;;;;;2.77;2.20;;;;;;;;;;5013069;28;20910;-62
2023/07/29 12:39:18;;;;;;;1.87;1.80;;;;;;;;;;5013286;28;20412;-62
2023/07/29 12:41:44;;;;;;;2.10;2.00;;;;;;;;;;5012727;28;20435;-62
2023/07/29 12:44:10;;;;;;;2.13;2.13;;;;;;;;;;5012949;28;20940;-62
2023/07/29 12:46:36;;;;;;;2.30;2.30;;;;;;;;;;5012684;28;20413;-61
2023/07/29 12:49:02;;;;;;;1.77;1.73;;;;;;;;;;5012629;28;20887;-62
2023/07/29 12:51:28;;;;;;;4.80;4.47;;;;;;;;;;5012824;28;20413;-59
2023/07/29 12:53:54;;;;;;;4.83;4.53;;;;;;;;;;5012714;28;20885;-60
2023/07/29 12:56:20;;;;;;;2.40;2.30;;;;;;;;;;5012844;28;20422;-62
2023/07/29 12:58:46;;;;;;;2.00;1.90;;;;;;;;;;5012743;28;20409;-62
2023/07/29 13:01:17;;;;;;;8.50;5.80;;;;;;;;;;5012747;28;20436;-61
2023/07/29 13:03:46;;;;;;;1.83;1.77;;;;;;;;;;5012598;28;20420;-62
2023/07/29 13:06:12;;;;;;;2.60;2.20;;;;;;;;;;5012770;28;20533;-61
2023/07/29 13:08:40;;;;;;;2.00;1.90;;;;;;;;;;5012546;28;20441;-60
2023/07/29 13:11:06;;;;;;;1.93;1.83;;;;;;;;;;5012535;28;20486;-60
2023/07/29 13:13:32;;;;;;;1.80;1.80;;;;;;;;;;5011081;28;20527;-62
2023/07/29 13:15:58;;;;;;;2.20;2.20;;;;;;;;;;5012381;28;20437;-62
2023/07/29 13:18:26;;;;;;;1.83;1.83;;;;;;;;;;5012373;28;20511;-62
2023/07/29 13:20:52;;;;;;;2.07;1.93;;;;;;;;;;5012416;28;20899;-61
2023/07/29 13:23:18;;;;;;;1.90;1.80;;;;;;;;;;5011400;28;20451;-62
2023/07/29 13:25:44;;;;;;;2.03;1.93;;;;;;;;;;5012450;28;20437;-62
2023/07/29 13:28:13;;;;;;;2.10;1.60;;;;;;;;;;5012256;28;20424;-62
2023/07/29 13:30:39;;;;;;;2.03;1.90;;;;;;;;;;5012818;28;20440;-62
2023/07/29 13:33:07;;;;;;;13.57;12.70;;;;;;;;;;5012466;28;20421;-62
2023/07/29 13:35:33;;;;;;;2.00;2.00;;;;;;;;;;5012397;28;20472;-62
2023/07/29 13:38:04;;;;;;;2.97;2.10;;;;;;;;;;5012359;28;20429;-63
2023/07/29 13:40:30;;;;;;;1.93;1.93;;;;;;;;;;5012491;28;20452;-62
2023/07/29 13:42:56;;;;;;;4.53;1.97;;;;;;;;;;5012437;28;20452;-70
2023/07/29 13:45:24;;;;;;;2.30;2.20;;;;;;;;;;5012923;28;20437;-62
2023/07/29 13:47:50;;;;;;;3.20;3.07;;;;;;;;;;5012439;28;20441;-63
2023/07/29 13:50:17;;;;;;;3.30;2.10;;;;;;;;;;5012219;28;20441;-62
2023/07/29 13:52:43;;;;;;;1.77;1.70;;;;;;;;;;5012329;28;20421;-62
2023/07/29 13:55:11;;;;;;;2.10;1.97;;;;;;;;;;5012108;28;20499;-64
2023/07/29 13:57:37;;;;;;;2.00;2.00;;;;;;;;;;5010869;28;20424;-62
2023/07/29 14:00:03;;;;;;;2.23;2.13;;;;;;;;;;5012100;28;20491;-62
2023/07/29 14:02:31;;;;;;;2.10;2.00;;;;;;;;;;5015856;28;20812;-62
2023/07/29 14:04:57;;;;;;;2.17;2.17;;;;;;;;;;5015845;28;20420;-62
2023/07/29 14:07:25;;;;;;;2.50;2.40;;;;;;;;;;5015552;28;20507;-62
2023/07/29 14:09:51;;;;;;;2.63;1.93;;;;;;;;;;5015676;28;20790;-61
2023/07/29 14:12:17;;;;;;;2.10;1.90;;;;;;;;;;5015647;28;20433;-62
2023/07/29 14:14:43;;;;;;;3.17;1.90;;;;;;;;;;5015794;28;20954;-62
2023/07/29 14:17:09;;;;;;;2.43;2.33;;;;;;;;;;5015539;28;20449;-61
2023/07/29 14:19:35;;;;;;;1.90;1.90;;;;;;;;;;5015888;28;20915;-61
2023/07/29 14:22:04;;;;;;;2.10;2.10;;;;;;;;;;5015570;28;20437;-62
2023/07/29 14:24:30;;;;;;;2.07;1.97;;;;;;;;;;5015396;28;20413;-62
2023/07/29 14:26:56;;;;;;;3.47;2.30;;;;;;;;;;5015468;28;20785;-61
2023/07/29 14:29:24;;;;;;;2.00;1.90;;;;;;;;;;5015355;28;20421;-62
2023/07/29 14:31:50;;;;;;;3.23;2.10;;;;;;;;;;5015456;28;20503;-61
2023/07/29 14:34:16;;;;;;;2.60;2.50;;;;;;;;;;5013899;28;21104;-62
2023/07/29 14:36:42;;;;;;;6.57;5.97;;;;;;;;;;5014985;28;20562;-61
2023/07/29 14:39:08;;;;;;;3.10;2.07;;;;;;;;;;5014953;28;20502;-60
2023/07/29 14:41:34;;;;;;;2.10;2.00;;;;;;;;;;5014963;28;20451;-61
2023/07/29 14:44:00;;;;;;;2.10;2.10;;;;;;;;;;5015070;28;20429;-60